createdAt,value
2022-08-22T00:02:41.484Z,1.7
2022-08-22T00:02:51.452Z,2
2022-08-22T00:03:05.286Z,2.6
2022-08-22T04:35:51.885Z,4.2
2022-08-22T04:38:06.268Z,3.9
2022-08-22T04:40:20.729Z,3.8
2022-08-22T04:42:35.182Z,3.8
2022-08-22T04:44:49.555Z,4.3
2022-08-22T04:47:04.085Z,3.6
2022-08-22T04:49:18.583Z,3.3
2022-08-22T04:51:32.933Z,3.8
2022-08-22T04:53:47.419Z,3
2022-08-22T04:56:07.207Z,3.1
2022-08-22T04:58:19.223Z,3
2022-08-22T05:00:33.526Z,3.1
2022-08-22T05:02:49.874Z,3
2022-08-22T05:05:04.258Z,2.8
2022-08-22T05:07:18.643Z,3.8
2022-08-22T05:09:33.042Z,3.1
2022-08-22T05:11:47.473Z,3
2022-08-22T05:14:01.876Z,2.6
2022-08-22T05:16:16.201Z,2.9
2022-08-22T05:18:31.526Z,2.7
2022-08-22T05:20:46.920Z,2.8
2022-08-22T05:23:02.272Z,2.9
2022-08-22T05:25:17.619Z,2.7
2022-08-22T05:27:32.113Z,3
2022-08-22T05:29:46.500Z,2.8
2022-08-22T05:32:00.876Z,2.7
2022-08-22T05:34:15.283Z,3
2022-08-22T05:36:29.631Z,2.4
2022-08-22T05:38:44.103Z,3.5
2022-08-22T05:40:59.448Z,2.6
2022-08-22T05:43:13.892Z,2.6
2022-08-22T05:45:28.285Z,2.7
2022-08-22T05:47:42.668Z,2.6
2022-08-22T05:49:57.006Z,2.7
2022-08-22T05:52:11.412Z,2.8
2022-08-22T05:54:33.609Z,2.7
2022-08-22T05:56:42.203Z,2.8
2022-08-22T05:58:56.650Z,3.4
2022-08-22T06:01:11.050Z,3.4
2022-08-22T06:03:25.494Z,3.2
2022-08-22T06:05:39.907Z,3.6
2022-08-22T06:07:54.276Z,3.5
2022-08-22T06:10:08.706Z,3.1
2022-08-22T06:12:24.072Z,3.6
2022-08-22T06:14:40.431Z,3.5
2022-08-22T06:16:56.794Z,3.8
2022-08-22T06:19:19.044Z,4.1
2022-08-22T06:21:30.617Z,4
2022-08-22T06:23:44.535Z,3.5
2022-08-22T06:25:58.975Z,3.7
2022-08-22T06:28:13.430Z,3.4
2022-08-22T06:30:27.851Z,4
2022-08-22T06:32:44.410Z,4.1
2022-08-22T06:34:59.480Z,4.3
2022-08-22T06:37:13.947Z,4.4
2022-08-22T06:39:28.319Z,4.7
2022-08-22T06:41:42.649Z,4.7
2022-08-22T06:43:57.029Z,4.5
2022-08-22T06:46:12.372Z,4.5
2022-08-22T06:48:26.780Z,5
2022-08-22T06:50:40.121Z,4.6
2022-08-22T06:52:54.517Z,4.8
2022-08-22T06:55:09.870Z,4.4
2022-08-22T06:57:24.235Z,4.2
2022-08-22T06:59:38.624Z,4.5
2022-08-22T07:01:53.096Z,4.2
2022-08-22T07:04:07.382Z,4.4
2022-08-22T07:06:21.717Z,4.4
2022-08-22T07:08:39.218Z,4
2022-08-22T07:10:53.406Z,4.1
2022-08-22T07:13:07.844Z,4.2
2022-08-22T07:15:22.182Z,4.2
2022-08-22T07:17:40.642Z,4
2022-08-22T07:19:53.880Z,4.5
2022-08-22T07:22:08.288Z,4.4
2022-08-22T07:24:22.653Z,5.2
2022-08-22T07:26:36.995Z,4.8
2022-08-22T07:28:57.826Z,4.9
2022-08-22T07:31:08.650Z,5
2022-08-22T07:33:26.919Z,5
2022-08-22T07:35:40.386Z,5.5
2022-08-22T07:37:54.773Z,5
2022-08-22T07:40:09.170Z,5.3
2022-08-22T07:42:27.530Z,5.1
2022-08-22T07:44:39.848Z,5.1
2022-08-22T07:46:54.246Z,4.7
2022-08-22T07:49:10.621Z,5.2
2022-08-22T07:51:24.973Z,4.8
2022-08-22T07:53:39.334Z,4.4
2022-08-22T07:55:53.709Z,5
2022-08-22T07:58:08.095Z,4.5
2022-08-22T08:00:22.432Z,4.8
2022-08-22T08:02:36.789Z,5.2
2022-08-22T08:04:51.225Z,4.8
2022-08-22T08:07:05.610Z,4.5
2022-08-22T08:09:20.042Z,4.5
2022-08-22T08:11:35.460Z,4.6
2022-08-22T08:13:49.839Z,5.2
2022-08-22T08:16:04.362Z,4.4
2022-08-22T08:18:18.803Z,4.5
2022-08-22T08:20:33.323Z,4.9
2022-08-22T08:22:47.817Z,5.4
2022-08-22T08:25:03.255Z,4.8
2022-08-22T08:27:17.690Z,4.6
2022-08-22T08:29:32.123Z,4.4
2022-08-22T08:31:46.507Z,4.6
2022-08-22T08:34:00.885Z,4.4
2022-08-22T08:36:15.290Z,4.6
2022-08-22T08:38:29.650Z,4.7
2022-08-22T08:40:46.025Z,4.7
2022-08-22T08:43:01.334Z,4.7
2022-08-22T08:45:15.681Z,4.6
2022-08-22T08:47:30.060Z,5.1
2022-08-22T08:49:44.408Z,4.8
2022-08-22T08:51:58.806Z,4.5
2022-08-22T08:54:13.134Z,4.3
2022-08-22T08:56:27.646Z,4.1
2022-08-22T08:58:41.986Z,3.8
2022-08-22T09:00:59.393Z,4.2
2022-08-22T09:03:17.352Z,3.7
2022-08-22T09:05:31.094Z,3.9
2022-08-22T09:07:46.936Z,3.9
2022-08-22T09:10:01.352Z,3.7
2022-08-22T09:12:15.819Z,3.6
2022-08-22T09:14:30.154Z,3.6
2022-08-22T09:16:48.128Z,3.4
2022-08-22T09:19:01.944Z,3.6
2022-08-22T09:21:27.614Z,3.3
2022-08-22T09:23:33.786Z,3.4
2022-08-22T09:25:49.107Z,3.8
2022-08-22T09:28:04.479Z,3.4
2022-08-22T09:30:18.812Z,4
2022-08-22T09:32:35.299Z,4
2022-08-22T09:34:49.666Z,6.4
2022-08-22T09:37:04.107Z,4.3
2022-08-22T09:39:18.504Z,3.1
2022-08-22T09:41:34.918Z,3.1
2022-08-22T09:43:50.310Z,3.2
2022-08-22T09:46:04.633Z,2.9
2022-08-22T09:48:19.013Z,3.4
2022-08-22T09:50:33.493Z,2.7
2022-08-22T09:52:47.913Z,2.8
2022-08-22T09:55:02.319Z,2.5
2022-08-22T09:57:16.707Z,3.3
2022-08-22T09:59:33.640Z,2.6
2022-08-22T10:01:47.469Z,2.6
2022-08-22T10:04:02.828Z,2.2
2022-08-22T10:06:18.202Z,2.7
2022-08-22T10:08:32.556Z,2.8
2022-08-22T10:10:46.935Z,2.5
2022-08-22T10:13:02.443Z,3.2
2022-08-22T10:15:17.657Z,3.2
2022-08-22T10:17:33.095Z,2.7
2022-08-22T10:19:49.431Z,3.2
2022-08-22T10:22:03.817Z,2.5
2022-08-22T10:24:24.629Z,2.9
2022-08-22T10:26:38.846Z,2.6
2022-08-22T10:28:53.051Z,3
2022-08-22T10:31:08.401Z,2.2
2022-08-22T10:33:24.754Z,2.9
2022-08-22T10:35:41.154Z,2.4
2022-08-22T10:37:55.682Z,2.6
2022-08-22T10:40:11.110Z,3
2022-08-22T10:42:27.824Z,2.6
2022-08-22T10:44:42.923Z,2.6
2022-08-22T10:46:58.211Z,3
2022-08-22T10:49:16.450Z,2.1
2022-08-22T10:51:30.043Z,2.4
2022-08-22T10:53:44.531Z,2.5
2022-08-22T10:55:58.929Z,2.2
2022-08-22T10:58:13.334Z,2.4
2022-08-22T11:00:27.701Z,2.5
2022-08-22T11:02:44.803Z,2.2
2022-08-22T11:04:58.465Z,2.2
2022-08-22T11:07:13.255Z,2.4
2022-08-22T11:09:30.333Z,2.6
2022-08-22T11:11:44.080Z,2.3
2022-08-22T11:13:58.442Z,2.5
2022-08-22T11:16:13.946Z,2.6
2022-08-22T11:18:30.417Z,2.4
2022-08-22T11:20:44.855Z,2.4
2022-08-22T11:23:00.340Z,4.1
2022-08-22T11:25:14.605Z,2.6
2022-08-22T11:27:37.711Z,2.3
2022-08-22T11:29:47.363Z,2.6
2022-08-22T11:32:05.702Z,2.2
2022-08-22T11:34:21.041Z,2.3
2022-08-22T11:36:35.396Z,2.6
2022-08-22T11:38:49.812Z,2.3
2022-08-22T11:41:06.241Z,2.1
2022-08-22T11:43:21.622Z,2
2022-08-22T11:45:38.027Z,2.3
2022-08-22T11:47:53.466Z,2.5
2022-08-22T11:50:10.790Z,2.5
2022-08-22T11:52:26.125Z,2.4
2022-08-22T11:54:42.604Z,2.6
2022-08-22T11:56:57.829Z,2.4
2022-08-22T11:59:12.244Z,2.8
2022-08-22T12:01:34.332Z,2.5
2022-08-22T12:03:45.477Z,3.1
2022-08-22T12:05:59.844Z,2.3
2022-08-22T12:08:14.211Z,2.7
2022-08-22T12:10:29.641Z,2.9
2022-08-22T12:12:43.970Z,3.3
2022-08-22T12:14:58.430Z,2.8
2022-08-22T12:17:26.269Z,3
2022-08-22T12:19:32.851Z,3.4
2022-08-22T12:21:47.637Z,3.3
2022-08-22T12:24:05.867Z,2.6
2022-08-22T12:26:21.987Z,2.9
2022-08-22T12:28:36.111Z,3.2
2022-08-22T12:30:54.622Z,5.4
2022-08-22T12:33:08.816Z,4.7
2022-08-22T12:35:27.193Z,4.3
2022-08-22T12:37:52.502Z,3.2
2022-08-22T12:39:57.961Z,3.5
2022-08-22T12:42:13.297Z,2.2
2022-08-22T12:44:27.688Z,2.5
2022-08-22T12:46:46.729Z,2.7
2022-08-22T12:49:00.385Z,2.9
2022-08-22T12:51:18.270Z,2.7
2022-08-22T12:53:32.088Z,2.6
2022-08-22T12:55:46.472Z,2.2
2022-08-22T12:58:01.090Z,2.2
2022-08-22T13:00:15.333Z,2.4
2022-08-22T13:02:31.638Z,4
2022-08-22T13:04:46.009Z,3.2
2022-08-22T13:07:00.479Z,2.6
2022-08-22T13:09:14.841Z,2.7
2022-08-22T13:11:30.249Z,3
2022-08-22T13:13:51.491Z,3.2
2022-08-22T13:16:02.050Z,3.2
2022-08-22T13:18:29.202Z,2.8
2022-08-22T13:20:34.778Z,2.4
2022-08-22T13:22:51.109Z,2.8
2022-08-22T13:25:08.569Z,3.4
2022-08-22T13:27:22.871Z,2.5
2022-08-22T13:29:42.614Z,2.9
2022-08-22T13:31:55.094Z,3.2
2022-08-22T13:34:10.060Z,2.8
2022-08-22T13:36:26.781Z,3.2
2022-08-22T13:38:46.432Z,2.6
2022-08-22T13:40:58.006Z,2.5
2022-08-22T13:43:12.472Z,2.9
2022-08-22T13:45:26.943Z,2.8
2022-08-22T13:47:41.336Z,2.2
2022-08-22T13:49:56.823Z,2.3
2022-08-22T13:52:14.593Z,2.7
2022-08-22T13:54:29.620Z,2.4
2022-08-22T13:56:47.316Z,2.9
2022-08-22T13:59:01.330Z,2.5
2022-08-22T14:01:15.726Z,2.5
2022-08-22T14:03:31.047Z,2.2
2022-08-22T14:05:45.454Z,2
2022-08-22T14:08:02.075Z,3.2
2022-08-22T14:10:17.178Z,2.7
2022-08-22T14:12:50.362Z,2.6
2022-08-22T14:14:48.805Z,2.6
2022-08-22T14:17:05.261Z,2.4
2022-08-22T14:19:19.721Z,2.4
2022-08-22T14:21:40.372Z,2.4
2022-08-22T14:23:51.449Z,2.6
2022-08-22T14:26:05.823Z,2.6
2022-08-22T14:28:21.218Z,2.4
2022-08-22T14:30:35.587Z,2.5
2022-08-22T14:32:50.973Z,2.6
2022-08-22T14:35:05.346Z,2.6
2022-08-22T14:37:20.715Z,2.7
2022-08-22T14:39:36.069Z,2.5
2022-08-22T14:41:56.456Z,2.6
2022-08-22T14:44:08.635Z,2.3
2022-08-22T14:46:26.502Z,2.8
2022-08-22T14:48:42.532Z,2.9
2022-08-22T14:50:57.698Z,2.2
2022-08-22T14:53:13.086Z,2.3
2022-08-22T14:55:27.464Z,2.4
2022-08-22T14:57:42.833Z,2.7
2022-08-22T14:59:57.166Z,2.6
2022-08-22T15:02:11.594Z,2.3
2022-08-22T15:04:27.912Z,2.5
2022-08-22T15:06:47.616Z,2.7
2022-08-22T15:08:59.623Z,2.2
2022-08-22T15:11:14.014Z,3
2022-08-22T15:13:30.332Z,2.4
2022-08-22T15:15:49.638Z,2.6
2022-08-22T15:18:03.144Z,2.4
2022-08-22T15:20:22.680Z,2.4
2022-08-22T15:22:32.746Z,2.4
2022-08-22T15:24:47.374Z,3
2022-08-22T15:27:02.733Z,2.4
2022-08-22T15:29:18.073Z,2.1
2022-08-22T15:31:33.452Z,2.5
2022-08-22T15:33:47.848Z,2.2
2022-08-22T15:36:03.209Z,2.7
2022-08-22T15:38:17.573Z,2.7
2022-08-22T15:40:33.906Z,2.6
2022-08-22T15:42:48.315Z,2.6
2022-08-22T15:45:02.686Z,2.4
2022-08-22T15:47:23.887Z,2.4
2022-08-22T15:49:35.348Z,2.5
2022-08-22T15:51:50.723Z,2.2
2022-08-22T15:54:16.460Z,2.6
2022-08-22T15:56:22.396Z,2.6
2022-08-22T15:58:36.776Z,2.4
2022-08-22T16:00:51.159Z,2.4
2022-08-22T16:03:05.535Z,2.3
2022-08-22T16:05:19.900Z,2.4
2022-08-22T16:07:34.330Z,3
2022-08-22T16:09:49.778Z,2.2
2022-08-22T16:12:04.133Z,2.4
2022-08-22T16:14:21.317Z,2.4
2022-08-22T16:16:34.915Z,2.3
2022-08-22T16:18:49.493Z,7.5
2022-08-22T16:21:04.009Z,3.3
2022-08-22T16:23:18.631Z,5
2022-08-22T16:25:34.160Z,21.200001
2022-08-22T16:27:48.790Z,59.099998
2022-08-22T16:30:03.191Z,84
2022-08-22T16:32:17.539Z,179.1
2022-08-22T16:34:31.962Z,199.8
2022-08-22T16:36:46.492Z,229.39999
2022-08-22T16:39:00.854Z,463.70001
2022-08-22T16:41:15.327Z,100.69999
2022-08-22T16:43:31.762Z,298
2022-08-22T16:45:46.137Z,225.39999
2022-08-22T16:48:00.507Z,687.90002
2022-08-22T16:50:15.013Z,583.59997
2022-08-22T16:52:29.394Z,49.200001
2022-08-22T16:54:44.767Z,42.599998
2022-08-22T16:56:59.247Z,46.400002
2022-08-22T16:59:23.286Z,13
2022-08-22T17:01:31.733Z,17.1
2022-08-22T17:03:46.091Z,3.3
2022-08-22T17:06:00.754Z,8.1
2022-08-22T17:08:15.159Z,4.3
2022-08-22T17:10:30.395Z,6.5
2022-08-22T17:12:45.068Z,3.2
2022-08-22T17:14:59.341Z,2.8
2022-08-22T17:17:13.682Z,3
2022-08-22T17:19:28.118Z,7.7
2022-08-22T17:21:48.712Z,4.6
2022-08-22T17:24:00.119Z,12.8
2022-08-22T17:26:14.511Z,2.6
2022-08-22T17:28:34.151Z,3.8
2022-08-22T17:30:47.208Z,4.7
2022-08-22T17:33:01.566Z,13.4
2022-08-22T17:35:16.240Z,2.8
2022-08-22T17:37:30.644Z,4.1
2022-08-22T17:39:45.151Z,3.6
2022-08-22T17:41:59.520Z,3.4
2022-08-22T17:44:13.897Z,9.3
2022-08-22T17:46:28.283Z,2.2
2022-08-22T17:48:42.720Z,11.7
2022-08-22T17:50:57.225Z,2.8
2022-08-22T17:53:11.607Z,10
2022-08-22T17:55:27.010Z,2.7
2022-08-22T17:57:41.386Z,3.8
2022-08-22T17:59:55.942Z,2.2
2022-08-22T18:02:11.336Z,4.5
2022-08-22T18:04:25.801Z,4
2022-08-22T18:06:41.187Z,2.1
2022-08-22T18:09:13.540Z,14.9
2022-08-22T18:11:13.056Z,5.8
2022-08-22T18:13:27.475Z,3.1
2022-08-22T18:15:41.835Z,2.6
2022-08-22T18:17:56.554Z,3
2022-08-22T18:20:10.872Z,2.5
2022-08-22T18:22:25.263Z,2.6
2022-08-22T18:24:39.644Z,3.7
2022-08-22T18:26:54.143Z,2.5
2022-08-22T18:29:08.627Z,2.4
2022-08-22T18:31:23.164Z,2.5
2022-08-22T18:33:38.634Z,2.4
2022-08-22T18:35:55.290Z,2.1
2022-08-22T18:38:19.882Z,2.5
2022-08-22T18:40:27.071Z,2.5
2022-08-22T18:42:41.431Z,2.3
2022-08-22T18:44:55.806Z,2.4
2022-08-22T18:47:10.212Z,2.2
2022-08-22T18:49:24.598Z,2.6
2022-08-22T18:51:39.988Z,2.4
2022-08-22T18:53:54.351Z,2.4
2022-08-22T18:56:08.804Z,2.5
2022-08-22T18:58:23.142Z,3.4
2022-08-22T19:00:37.499Z,2
2022-08-22T19:02:55.305Z,2.9
2022-08-22T19:05:09.365Z,2.6
2022-08-22T19:07:23.753Z,2.7
2022-08-22T19:09:38.139Z,3
2022-08-22T19:11:52.597Z,2.8
2022-08-22T19:14:07.049Z,3.4
2022-08-22T19:16:21.384Z,5
2022-08-22T19:18:35.798Z,4
2022-08-22T19:20:50.166Z,5.4
2022-08-22T19:23:04.586Z,5.1
2022-08-22T19:25:18.918Z,4.5
2022-08-22T19:27:33.304Z,4.4
2022-08-22T19:29:47.748Z,4.1
2022-08-22T19:32:02.122Z,5.7
2022-08-22T19:34:17.515Z,4.3
2022-08-22T19:36:31.907Z,3
2022-08-22T19:38:46.286Z,3.3
2022-08-22T19:41:00.736Z,5
2022-08-22T19:43:15.131Z,6.1
2022-08-22T19:45:29.660Z,6.2
2022-08-22T19:47:44.069Z,4.5
2022-08-22T19:50:00.381Z,2.6
2022-08-22T19:52:14.776Z,2.6
2022-08-22T19:54:29.219Z,3
2022-08-22T19:56:43.651Z,3
2022-08-22T19:58:58.148Z,3.6
2022-08-22T20:01:12.881Z,3.3
2022-08-22T20:03:27.232Z,2.8
2022-08-22T20:05:42.812Z,3.6
2022-08-22T20:07:58.231Z,3.4
2022-08-22T20:10:12.625Z,2.7
2022-08-22T20:12:26.997Z,2.5
2022-08-22T20:14:41.432Z,2.9
2022-08-22T20:16:55.789Z,3.2
2022-08-22T20:19:11.939Z,4.3
2022-08-22T20:21:28.008Z,3.7
2022-08-22T20:23:42.483Z,2.9
2022-08-22T20:25:57.032Z,2.6
2022-08-22T20:28:11.419Z,3.7
2022-08-22T20:30:26.830Z,2.7
2022-08-22T20:32:41.247Z,2.4
2022-08-22T20:34:55.677Z,2.5
2022-08-22T20:37:40.068Z,3.4
2022-08-22T20:39:27.523Z,2.9
2022-08-22T20:41:41.954Z,3
2022-08-22T20:43:56.444Z,2.9
2022-08-22T20:46:12.961Z,3.3
2022-08-22T20:48:27.433Z,3.4
2022-08-22T20:50:41.939Z,3.1
2022-08-22T20:52:56.315Z,3
2022-08-22T20:55:10.793Z,3.5
2022-08-22T20:57:25.188Z,3
2022-08-22T20:59:40.610Z,2.7
2022-08-22T21:01:55.035Z,3.1
2022-08-22T21:04:09.509Z,3.2
2022-08-22T21:06:24.939Z,2.7
2022-08-22T21:08:39.402Z,2.6
2022-08-22T21:10:53.847Z,2.9
2022-08-22T21:13:08.262Z,2.6
2022-08-22T21:15:22.710Z,2.9
2022-08-22T21:17:39.563Z,2.8
2022-08-22T21:19:54.510Z,2.6
2022-08-22T21:22:10.056Z,2.5
2022-08-22T21:24:24.409Z,2.9
2022-08-22T21:26:38.885Z,5
2022-08-22T21:28:53.268Z,3.7
